Time;durP1;ratioP1;P1;durP2;ratioP2;P2;SDS_P1;SDS_P2;PMS_P1;PMS_P2;Temp;Humidity;BMP_temperature;BMP_pressure;BME280_temperature;BME280_humidity;BME280_pressure;Samples;Min_cycle;Max_cycle;Signal;HPM_P1;HPM_P2
2020/12/31 00:00:33;;;;;;;2.10;1.90;;;;;17.90;99241.00;;;;2063057;28;20346;-51
2020/12/31 00:01:34;;;;;;;1.90;1.80;;;;;17.90;99233.00;;;;2062274;28;20200;-52
2020/12/31 00:02:34;;;;;;;2.40;2.20;;;;;17.90;99237.00;;;;2062718;28;20212;-50
2020/12/31 00:03:34;;;;;;;2.30;2.10;;;;;17.90;99231.00;;;;2062894;28;20204;-51
2020/12/31 00:04:35;;;;;;;1.83;1.73;;;;;17.80;99241.00;;;;2062252;28;21584;-50
2020/12/31 00:05:35;;;;;;;2.17;1.97;;;;;17.80;99240.00;;;;2063037;28;20219;-49
2020/12/31 00:06:35;;;;;;;2.10;1.90;;;;;17.90;99239.00;;;;2062883;28;20318;-50
2020/12/31 00:07:36;;;;;;;1.90;1.80;;;;;17.90;99239.00;;;;2062459;28;20227;-52
2020/12/31 00:08:36;;;;;;;1.80;1.70;;;;;17.80;99238.00;;;;2062948;28;20220;-51
2020/12/31 00:09:36;;;;;;;1.93;1.83;;;;;17.80;99228.00;;;;2062986;28;20256;-50
2020/12/31 00:10:37;;;;;;;2.00;1.90;;;;;17.80;99232.00;;;;2062997;28;20218;-50
2020/12/31 00:11:37;;;;;;;2.30;2.10;;;;;17.80;99232.00;;;;2062453;28;20896;-50
2020/12/31 00:12:37;;;;;;;1.63;1.53;;;;;17.90;99236.00;;;;2063047;28;20692;-51
2020/12/31 00:13:38;;;;;;;1.87;1.70;;;;;17.80;99234.00;;;;2063105;28;20242;-50
2020/12/31 00:14:39;;;;;;;1.80;1.70;;;;;17.80;99235.00;;;;2062042;28;20715;-50
2020/12/31 00:15:39;;;;;;;1.77;1.67;;;;;17.80;99234.00;;;;2062852;28;20214;-50
2020/12/31 00:16:39;;;;;;;1.93;1.83;;;;;17.80;99245.00;;;;2062919;28;20633;-51
2020/12/31 00:17:40;;;;;;;1.93;1.83;;;;;17.90;99230.00;;;;2062030;28;20577;-49
2020/12/31 00:18:40;;;;;;;2.00;1.80;;;;;17.80;99236.00;;;;2062187;28;20298;-52
2020/12/31 00:19:40;;;;;;;1.77;1.67;;;;;17.80;99236.00;;;;2062397;28;20271;-51
2020/12/31 00:20:41;;;;;;;2.00;1.90;;;;;17.80;99231.00;;;;2062286;28;20247;-50
2020/12/31 00:21:41;;;;;;;1.73;1.63;;;;;17.90;99228.00;;;;2062446;28;20719;-50
2020/12/31 00:22:41;;;;;;;1.70;1.60;;;;;17.90;99238.00;;;;2062476;28;20227;-52
2020/12/31 00:23:42;;;;;;;1.77;1.67;;;;;17.80;99233.00;;;;2060848;28;20311;-50
2020/12/31 00:24:42;;;;;;;2.10;1.90;;;;;17.80;99228.00;;;;2061623;28;20219;-52
2020/12/31 00:25:51;;;;;;;1.90;1.53;;;;;17.80;99235.00;;;;2062329;28;20688;-53
2020/12/31 00:26:51;;;;;;;2.00;1.90;;;;;17.80;99229.00;;;;2062001;28;20220;-50
2020/12/31 00:27:51;;;;;;;1.77;1.67;;;;;17.80;99244.00;;;;2062397;28;20227;-50
2020/12/31 00:28:52;;;;;;;2.00;1.80;;;;;17.80;99226.00;;;;2062274;28;20688;-50
2020/12/31 00:29:52;;;;;;;2.27;1.90;;;;;17.80;99182.00;;;;2062695;28;20716;-51
2020/12/31 00:30:52;;;;;;;1.67;1.57;;;;;17.80;99232.00;;;;2062989;28;20593;-50
2020/12/31 00:31:53;;;;;;;1.70;1.60;;;;;17.80;99223.00;;;;2062644;28;20219;-53
2020/12/31 00:32:53;;;;;;;1.47;1.37;;;;;17.80;99225.00;;;;2062591;28;20230;-51
2020/12/31 00:33:53;;;;;;;1.80;1.70;;;;;17.80;99237.00;;;;2062829;28;20216;-50
2020/12/31 00:34:54;;;;;;;2.00;1.90;;;;;17.80;99231.00;;;;2062092;28;20273;-50
2020/12/31 00:35:55;;;;;;;1.87;1.77;;;;;17.80;99231.00;;;;2055635;28;20223;-49
2020/12/31 00:36:55;;;;;;;1.88;1.77;;;;;17.80;99237.00;;;;2062296;28;20219;-51
2020/12/31 00:37:55;;;;;;;1.90;1.70;;;;;17.80;99230.00;;;;2062939;28;20299;-50
2020/12/31 00:38:56;;;;;;;1.90;1.80;;;;;17.80;99227.00;;;;2063042;28;20222;-50
2020/12/31 00:39:56;;;;;;;1.80;1.70;;;;;17.80;99235.00;;;;2063006;28;20228;-50
2020/12/31 00:40:58;;;;;;;1.70;1.60;;;;;17.80;99235.00;;;;2062446;28;20209;-50
2020/12/31 00:41:59;;;;;;;1.80;1.70;;;;;17.80;99228.00;;;;2061944;28;20200;-50
2020/12/31 00:43:00;;;;;;;1.67;1.57;;;;;17.80;99233.00;;;;2062038;28;20212;-53
2020/12/31 00:44:00;;;;;;;1.85;1.75;;;;;17.90;99238.00;;;;2062501;28;20261;-50
2020/12/31 00:45:01;;;;;;;2.53;1.80;;;;;17.80;99233.00;;;;2062351;28;20274;-50
2020/12/31 00:46:01;;;;;;;1.67;1.57;;;;;17.80;99231.00;;;;2062967;28;20277;-52
2020/12/31 00:47:01;;;;;;;1.90;1.80;;;;;17.80;99233.00;;;;2062574;28;20231;-52
2020/12/31 00:48:02;;;;;;;2.23;2.03;;;;;17.80;99231.00;;;;2062941;28;20216;-51
2020/12/31 00:49:02;;;;;;;1.83;1.70;;;;;17.80;99228.00;;;;2063006;28;20211;-50
2020/12/31 00:50:03;;;;;;;2.00;1.63;;;;;17.80;99223.00;;;;2063132;28;20230;-53
2020/12/31 00:51:04;;;;;;;1.60;1.50;;;;;17.80;99230.00;;;;2062928;28;20314;-51
2020/12/31 00:52:04;;;;;;;1.83;1.73;;;;;17.80;99227.00;;;;2062688;28;20466;-51
2020/12/31 00:53:04;;;;;;;2.10;1.97;;;;;17.80;99223.00;;;;2063018;28;20219;-50
2020/12/31 00:54:05;;;;;;;1.60;1.50;;;;;17.80;99227.00;;;;2062239;28;20596;-50
2020/12/31 00:55:05;;;;;;;2.10;1.90;;;;;17.80;99224.00;;;;2061369;28;20302;-50
2020/12/31 00:56:05;;;;;;;1.53;1.43;;;;;17.80;99222.00;;;;2062980;28;20246;-53
2020/12/31 00:57:06;;;;;;;1.63;1.53;;;;;17.80;99230.00;;;;2062782;28;20708;-51
2020/12/31 00:58:06;;;;;;;1.50;1.40;;;;;17.80;99229.00;;;;2062833;28;20234;-50
2020/12/31 00:59:06;;;;;;;1.70;1.60;;;;;17.80;99226.00;;;;2062833;28;20219;-51
2020/12/31 01:00:07;;;;;;;1.70;1.60;;;;;17.80;99226.00;;;;2063044;28;20215;-50
2020/12/31 01:01:07;;;;;;;1.70;1.60;;;;;17.80;99225.00;;;;2062694;28;20704;-49
2020/12/31 01:02:09;;;;;;;1.43;1.33;;;;;17.80;99223.00;;;;2062468;28;20577;-52
2020/12/31 01:03:10;;;;;;;1.60;1.50;;;;;17.80;99222.00;;;;2062828;28;20275;-53
2020/12/31 01:04:10;;;;;;;1.70;1.60;;;;;17.90;99223.00;;;;2062868;28;20282;-50
2020/12/31 01:05:11;;;;;;;1.50;1.40;;;;;17.80;99218.00;;;;2058691;28;20312;-50
2020/12/31 01:06:11;;;;;;;1.80;1.70;;;;;17.80;99225.00;;;;2070254;28;20227;-50
2020/12/31 01:07:15;;;;;;;1.83;1.73;;;;;17.80;99219.00;;;;2064135;28;20234;-51
2020/12/31 01:08:16;;;;;;;1.60;1.50;;;;;17.80;99215.00;;;;2062878;28;20230;-53
2020/12/31 01:09:17;;;;;;;1.70;1.60;;;;;17.80;99208.00;;;;2062924;28;20211;-50
2020/12/31 01:10:17;;;;;;;1.70;1.60;;;;;17.80;99215.00;;;;2062998;28;20993;-50
2020/12/31 01:11:18;;;;;;;2.10;1.90;;;;;17.80;99219.00;;;;2062758;28;20273;-50
2020/12/31 01:12:18;;;;;;;1.70;1.60;;;;;17.80;99213.00;;;;2062075;28;20215;-52
2020/12/31 01:13:19;;;;;;;1.83;1.73;;;;;17.80;99204.00;;;;2062132;28;21447;-51
2020/12/31 01:14:19;;;;;;;1.80;1.50;;;;;17.80;99205.00;;;;2062719;28;20240;-51
2020/12/31 01:15:19;;;;;;;2.00;1.77;;;;;17.80;99203.00;;;;2062177;28;20879;-51
2020/12/31 01:16:20;;;;;;;1.60;1.50;;;;;17.80;99209.00;;;;2062690;28;20204;-50
2020/12/31 01:17:20;;;;;;;1.70;1.60;;;;;17.50;99212.00;;;;2062388;28;20219;-50
2020/12/31 01:18:20;;;;;;;2.17;1.73;;;;;17.80;99207.00;;;;2062915;28;20223;-52
2020/12/31 01:19:21;;;;;;;1.70;1.60;;;;;17.80;99211.00;;;;2062116;28;20324;-52
2020/12/31 01:20:21;;;;;;;1.50;1.40;;;;;17.80;99204.00;;;;2062235;28;20254;-51
2020/12/31 01:21:21;;;;;;;1.70;1.60;;;;;17.80;99213.00;;;;2062719;28;20571;-51
2020/12/31 01:22:22;;;;;;;1.77;1.67;;;;;17.80;99204.00;;;;2062542;28;20601;-51
2020/12/31 01:23:22;;;;;;;1.90;1.70;;;;;17.80;99203.00;;;;2062687;28;20224;-51
2020/12/31 01:24:22;;;;;;;1.60;1.50;;;;;17.80;99207.00;;;;2062736;28;20219;-50
2020/12/31 01:25:23;;;;;;;1.80;1.70;;;;;17.80;99209.00;;;;2062227;28;20303;-52
2020/12/31 01:26:31;;;;;;;1.73;1.63;;;;;17.80;99212.00;;;;2062730;28;20219;-51
2020/12/31 01:27:32;;;;;;;2.10;1.90;;;;;17.80;99212.00;;;;2062406;28;20255;-53
2020/12/31 01:28:32;;;;;;;1.80;1.70;;;;;17.80;99208.00;;;;2062613;28;20212;-51
2020/12/31 01:29:33;;;;;;;1.57;1.43;;;;;17.80;99205.00;;;;2062280;28;20223;-53
2020/12/31 01:30:33;;;;;;;1.70;1.60;;;;;17.80;99207.00;;;;2062918;28;20599;-50
2020/12/31 01:31:34;;;;;;;1.60;1.30;;;;;17.80;99206.00;;;;2062693;28;20303;-50
2020/12/31 01:32:34;;;;;;;1.60;1.50;;;;;17.80;99198.00;;;;2062749;28;20708;-51
2020/12/31 01:33:35;;;;;;;1.43;1.33;;;;;17.80;99206.00;;;;2062848;28;20223;-50
2020/12/31 01:34:35;;;;;;;1.70;1.58;;;;;17.80;99205.00;;;;2061546;28;20232;-51
2020/12/31 01:35:36;;;;;;;1.70;1.40;;;;;17.80;99206.00;;;;2059446;28;20218;-50
2020/12/31 01:36:36;;;;;;;1.50;1.40;;;;;17.80;99210.00;;;;2062552;28;20565;-50
2020/12/31 01:37:37;;;;;;;1.70;1.60;;;;;17.80;99210.00;;;;2062259;28;20291;-50
2020/12/31 01:38:37;;;;;;;2.13;1.60;;;;;17.80;99211.00;;;;2053295;28;20208;-52
2020/12/31 01:39:37;;;;;;;1.60;1.50;;;;;17.80;99214.00;;;;2062343;28;20230;-50
2020/12/31 01:40:38;;;;;;;1.67;1.57;;;;;17.80;99212.00;;;;2064026;28;20752;-50
2020/12/31 01:41:38;;;;;;;2.53;1.53;;;;;17.80;99208.00;;;;2064206;28;20672;-50
2020/12/31 01:42:42;;;;;;;1.60;1.50;;;;;17.80;99211.00;;;;2064014;28;20212;-50
2020/12/31 01:43:42;;;;;;;1.88;1.77;;;;;17.80;99208.00;;;;2064259;28;20216;-50
2020/12/31 01:44:42;;;;;;;1.30;1.20;;;;;17.80;99217.00;;;;2063097;28;20383;-50
2020/12/31 01:45:43;;;;;;;1.47;1.37;;;;;17.80;99208.00;;;;2063750;28;20931;-53
2020/12/31 01:46:47;;;;;;;1.60;1.50;;;;;17.80;99205.00;;;;2064079;28;20216;-51
2020/12/31 01:47:48;;;;;;;1.33;1.23;;;;;17.80;99208.00;;;;2063907;28;20680;-51
2020/12/31 01:48:48;;;;;;;1.47;1.37;;;;;17.80;99199.00;;;;2064271;28;20274;-51
2020/12/31 01:49:48;;;;;;;1.70;1.60;;;;;17.80;99204.00;;;;2063997;28;20230;-50
2020/12/31 01:50:49;;;;;;;1.67;1.57;;;;;17.80;99204.00;;;;2064322;28;20226;-50
2020/12/31 01:51:49;;;;;;;1.90;1.50;;;;;17.80;99205.00;;;;2055443;28;20989;-50
2020/12/31 01:52:49;;;;;;;1.53;1.43;;;;;17.80;99202.00;;;;2055056;28;20693;-52
2020/12/31 01:53:56;;;;;;;1.47;1.37;;;;;17.80;99200.00;;;;2063386;28;20224;-51
2020/12/31 01:54:56;;;;;;;1.42;1.33;;;;;17.80;99206.00;;;;2062934;28;20255;-50
2020/12/31 01:55:58;;;;;;;1.73;1.63;;;;;17.80;99209.00;;;;2062748;28;20234;-50
2020/12/31 01:56:58;;;;;;;1.58;1.48;;;;;17.80;99202.00;;;;2070464;28;20298;-51
2020/12/31 01:57:58;;;;;;;1.50;1.40;;;;;17.80;99201.00;;;;2073797;28;20196;-52
2020/12/31 01:58:59;;;;;;;1.73;1.63;;;;;17.80;99204.00;;;;2068488;28;20237;-50
2020/12/31 01:59:59;;;;;;;1.80;1.40;;;;;17.80;99200.00;;;;2056021;28;20236;-50
2020/12/31 02:00:59;;;;;;;1.80;1.53;;;;;17.80;99206.00;;;;2059906;28;20300;-51
2020/12/31 02:02:00;;;;;;;1.53;1.43;;;;;17.80;99196.00;;;;2047243;28;20755;-53
2020/12/31 02:03:00;;;;;;;1.90;1.80;;;;;17.80;99205.00;;;;2055128;28;20690;-51
2020/12/31 02:04:00;;;;;;;1.40;1.30;;;;;17.80;99198.00;;;;2063950;28;20990;-50
2020/12/31 02:05:01;;;;;;;1.50;1.40;;;;;17.80;99197.00;;;;2063708;28;20228;-50
2020/12/31 02:06:01;;;;;;;1.70;1.60;;;;;17.80;99199.00;;;;2063435;28;20300;-50
2020/12/31 02:07:01;;;;;;;1.70;1.60;;;;;17.80;99190.00;;;;2055123;28;20221;-51
2020/12/31 02:08:02;;;;;;;1.83;1.73;;;;;17.80;99207.00;;;;2066292;28;20846;-51
2020/12/31 02:09:02;;;;;;;1.50;1.40;;;;;17.80;99196.00;;;;2064040;28;20211;-52
2020/12/31 02:10:03;;;;;;;1.50;1.40;;;;;17.80;99206.00;;;;2064181;28;20215;-53
2020/12/31 02:11:03;;;;;;;1.70;1.60;;;;;17.80;99186.00;;;;2063750;28;20222;-52
2020/12/31 02:12:04;;;;;;;1.57;1.47;;;;;17.80;99200.00;;;;2071266;28;20999;-52
2020/12/31 02:13:05;;;;;;;1.57;1.47;;;;;17.80;99200.00;;;;2079209;28;20771;-53
2020/12/31 02:14:05;;;;;;;1.33;1.23;;;;;17.80;99209.00;;;;2067147;28;20447;-52
2020/12/31 02:15:05;;;;;;;1.63;1.53;;;;;17.80;99196.00;;;;2062486;28;20296;-53
2020/12/31 02:16:09;;;;;;;1.60;1.50;;;;;17.80;99194.00;;;;2056702;28;20694;-52
2020/12/31 02:17:11;;;;;;;1.50;1.40;;;;;17.80;99196.00;;;;2064494;28;20209;-51
2020/12/31 02:18:11;;;;;;;1.60;1.50;;;;;17.70;99190.00;;;;2063749;28;20287;-51
2020/12/31 02:19:13;;;;;;;1.63;1.40;;;;;17.80;99202.00;;;;2063861;28;20592;-52
2020/12/31 02:20:14;;;;;;;1.50;1.40;;;;;17.80;99198.00;;;;2063220;28;20227;-51
2020/12/31 02:21:17;;;;;;;1.60;1.50;;;;;17.80;99186.00;;;;2062644;28;20204;-50
2020/12/31 02:22:17;;;;;;;1.20;1.10;;;;;17.80;99184.00;;;;2062954;28;20216;-50
2020/12/31 02:23:17;;;;;;;1.60;1.50;;;;;17.80;99189.00;;;;2063232;28;20217;-50
2020/12/31 02:24:18;;;;;;;1.37;1.27;;;;;17.80;99188.00;;;;2061455;28;20208;-49
2020/12/31 02:25:18;;;;;;;1.37;1.27;;;;;17.80;99183.00;;;;2057984;28;20592;-53
2020/12/31 02:26:20;;;;;;;1.60;1.50;;;;;17.80;99187.00;;;;2064998;28;20455;-52
2020/12/31 02:27:21;;;;;;;1.63;1.52;;;;;17.80;99185.00;;;;2063240;28;20266;-49
2020/12/31 02:28:21;;;;;;;1.60;1.50;;;;;17.80;99193.00;;;;2062202;28;20214;-51
2020/12/31 02:29:21;;;;;;;1.50;1.40;;;;;17.80;99191.00;;;;2063646;28;20294;-51
2020/12/31 02:30:22;;;;;;;1.60;1.50;;;;;17.80;99187.00;;;;2063886;28;20310;-51
2020/12/31 02:31:23;;;;;;;1.63;1.53;;;;;17.80;99196.00;;;;2063902;28;20218;-51
2020/12/31 02:32:23;;;;;;;1.60;1.50;;;;;17.80;99190.00;;;;2063728;28;20223;-51
2020/12/31 02:33:23;;;;;;;1.50;1.40;;;;;17.80;99188.00;;;;2063821;28;20479;-53
2020/12/31 02:34:26;;;;;;;2.10;1.47;;;;;17.80;99184.00;;;;2063952;28;20683;-52
2020/12/31 02:35:26;;;;;;;1.45;1.35;;;;;17.80;99186.00;;;;2065074;28;20216;-50
2020/12/31 02:36:28;;;;;;;1.50;1.40;;;;;17.80;99185.00;;;;2063856;28;20213;-51
2020/12/31 02:37:28;;;;;;;1.58;1.48;;;;;17.80;99185.00;;;;2063505;28;20223;-51
2020/12/31 02:38:28;;;;;;;1.40;1.30;;;;;17.80;99187.00;;;;2063859;28;20230;-51
2020/12/31 02:39:29;;;;;;;1.30;1.20;;;;;17.80;99182.00;;;;2063823;28;20242;-51
2020/12/31 02:40:29;;;;;;;1.30;1.20;;;;;17.70;99188.00;;;;2063778;28;20294;-52
2020/12/31 02:41:29;;;;;;;1.60;1.50;;;;;17.70;99191.00;;;;2063454;28;20215;-51
2020/12/31 02:42:30;;;;;;;1.53;1.43;;;;;17.80;99192.00;;;;2063689;28;20217;-50
2020/12/31 02:43:30;;;;;;;1.33;1.23;;;;;17.80;99184.00;;;;2063317;28;20220;-50
2020/12/31 02:44:30;;;;;;;1.30;1.20;;;;;17.80;99183.00;;;;2063158;28;20230;-52
2020/12/31 02:45:31;;;;;;;1.97;1.27;;;;;17.70;99183.00;;;;2063367;28;20459;-50
2020/12/31 02:46:31;;;;;;;1.40;1.30;;;;;17.70;99185.00;;;;2063327;28;20223;-53
2020/12/31 02:47:34;;;;;;;1.90;1.80;;;;;17.70;99182.00;;;;2063426;28;20223;-51
2020/12/31 02:48:35;;;;;;;1.50;1.40;;;;;17.70;99190.00;;;;2070609;28;20207;-50
2020/12/31 02:49:35;;;;;;;2.20;1.20;;;;;17.80;99185.00;;;;2070990;28;20219;-50
2020/12/31 02:50:35;;;;;;;1.30;1.20;;;;;17.80;99183.00;;;;2066871;28;20227;-53
2020/12/31 02:51:36;;;;;;;1.77;1.67;;;;;17.70;99183.00;;;;2062981;28;20263;-52
2020/12/31 02:52:36;;;;;;;1.40;1.30;;;;;17.70;99178.00;;;;2063379;28;20222;-51
2020/12/31 02:53:36;;;;;;;1.50;1.40;;;;;17.80;99176.00;;;;2058184;28;20598;-51
2020/12/31 02:54:37;;;;;;;1.20;1.10;;;;;17.80;99182.00;;;;2070405;28;20213;-50
2020/12/31 02:55:37;;;;;;;1.10;1.00;;;;;17.70;99179.00;;;;2066792;28;20283;-50
2020/12/31 02:56:37;;;;;;;1.70;1.40;;;;;17.80;99179.00;;;;2072144;28;20214;-51
2020/12/31 02:57:38;;;;;;;1.30;1.20;;;;;17.80;99177.00;;;;2078951;28;20306;-52
2020/12/31 02:58:38;;;;;;;1.40;1.30;;;;;17.70;99164.00;;;;2066488;28;20706;-51
2020/12/31 02:59:39;;;;;;;1.20;1.10;;;;;17.70;99173.00;;;;2063414;28;20566;-51
2020/12/31 03:00:39;;;;;;;1.43;1.33;;;;;17.80;99175.00;;;;2063326;28;20212;-50
2020/12/31 03:01:39;;;;;;;1.33;1.23;;;;;17.80;99169.00;;;;2063160;28;20225;-50
2020/12/31 03:02:40;;;;;;;1.30;1.20;;;;;17.80;99177.00;;;;2063277;28;20268;-50
2020/12/31 03:03:40;;;;;;;1.60;1.50;;;;;17.80;99171.00;;;;2063453;28;20247;-52
2020/12/31 03:04:40;;;;;;;1.60;1.50;;;;;17.70;99172.00;;;;2062768;28;20224;-51
2020/12/31 03:05:41;;;;;;;1.63;1.43;;;;;17.70;99180.00;;;;2063540;28;20221;-51
2020/12/31 03:06:41;;;;;;;1.40;1.30;;;;;17.80;99173.00;;;;2063266;28;20702;-52
2020/12/31 03:07:41;;;;;;;1.40;1.30;;;;;17.70;99174.00;;;;2062929;28;21031;-52
2020/12/31 03:08:42;;;;;;;1.33;1.23;;;;;17.80;99175.00;;;;2063375;28;20859;-51
2020/12/31 03:09:43;;;;;;;1.50;1.40;;;;;17.80;99182.00;;;;2063315;28;20647;-52
2020/12/31 03:10:44;;;;;;;1.58;1.48;;;;;17.80;99176.00;;;;2063231;28;20775;-50
2020/12/31 03:11:44;;;;;;;1.63;1.53;;;;;17.80;99184.00;;;;2063437;28;20216;-52
2020/12/31 03:12:44;;;;;;;1.40;1.30;;;;;17.80;99186.00;;;;2063517;28;21328;-52
2020/12/31 03:13:45;;;;;;;1.20;1.10;;;;;17.80;99184.00;;;;2063050;28;20642;-51
2020/12/31 03:14:45;;;;;;;1.30;1.20;;;;;17.80;99172.00;;;;2061738;28;20613;-51
2020/12/31 03:15:45;;;;;;;1.50;1.40;;;;;17.80;99184.00;;;;2062741;28;20605;-50
2020/12/31 03:16:46;;;;;;;1.30;1.20;;;;;17.70;99177.00;;;;2062424;28;20265;-50
2020/12/31 03:17:46;;;;;;;1.33;1.23;;;;;17.70;99176.00;;;;2062532;28;20230;-50
2020/12/31 03:18:47;;;;;;;1.40;1.30;;;;;17.70;99181.00;;;;2056818;28;20318;-49
2020/12/31 03:19:47;;;;;;;1.37;1.27;;;;;17.80;99177.00;;;;2061384;28;20238;-50
2020/12/31 03:20:48;;;;;;;1.60;1.50;;;;;17.70;99177.00;;;;2063399;28;20714;-49
2020/12/31 03:21:48;;;;;;;1.30;1.20;;;;;17.70;99181.00;;;;2062457;28;20741;-50
2020/12/31 03:22:48;;;;;;;1.30;1.20;;;;;17.50;99179.00;;;;2063279;28;20311;-50
2020/12/31 03:23:49;;;;;;;1.40;1.30;;;;;17.70;99180.00;;;;2062944;28;20220;-51
2020/12/31 03:24:49;;;;;;;1.37;1.27;;;;;17.70;99178.00;;;;2062761;28;20669;-50
2020/12/31 03:25:49;;;;;;;1.20;1.10;;;;;17.70;99177.00;;;;2063260;28;20636;-49
2020/12/31 03:26:50;;;;;;;1.53;1.43;;;;;17.70;99172.00;;;;2062966;28;20735;-51
2020/12/31 03:27:50;;;;;;;1.00;1.00;;;;;17.70;99179.00;;;;2062931;28;21008;-49
2020/12/31 03:28:50;;;;;;;1.40;1.30;;;;;17.80;99173.00;;;;2063274;28;20579;-49
2020/12/31 03:29:50;;;;;;;1.63;1.47;;;;;17.70;99178.00;;;;2063195;28;20632;-49
2020/12/31 03:30:51;;;;;;;1.47;1.30;;;;;17.70;99180.00;;;;2062976;28;20569;-51
2020/12/31 03:31:51;;;;;;;1.23;1.13;;;;;17.70;99170.00;;;;2063265;28;20632;-51
2020/12/31 03:32:51;;;;;;;1.40;1.30;;;;;17.70;99176.00;;;;2063180;28;20220;-52
2020/12/31 03:33:52;;;;;;;1.53;1.43;;;;;17.70;99176.00;;;;2063302;28;20356;-51
2020/12/31 03:34:52;;;;;;;1.33;1.23;;;;;17.70;99178.00;;;;2062248;28;20222;-52
2020/12/31 03:35:52;;;;;;;1.20;1.10;;;;;17.70;99170.00;;;;2063288;28;20220;-52
2020/12/31 03:36:53;;;;;;;1.40;1.30;;;;;17.80;99163.00;;;;2062949;28;20226;-50
2020/12/31 03:37:53;;;;;;;1.30;1.20;;;;;17.70;99172.00;;;;2063056;28;20282;-52
2020/12/31 03:38:57;;;;;;;1.20;1.10;;;;;17.70;99166.00;;;;2063099;28;20215;-51
2020/12/31 03:39:57;;;;;;;1.42;1.33;;;;;17.70;99166.00;;;;2063347;28;20992;-49
2020/12/31 03:40:57;;;;;;;1.50;1.40;;;;;17.70;99162.00;;;;2062853;28;20224;-50
2020/12/31 03:41:58;;;;;;;1.33;1.23;;;;;17.70;99162.00;;;;2063024;28;20219;-50
2020/12/31 03:42:58;;;;;;;1.67;1.40;;;;;17.70;99167.00;;;;2063273;28;20747;-50
2020/12/31 03:43:58;;;;;;;1.13;1.07;;;;;17.70;99163.00;;;;2063294;28;20975;-49
2020/12/31 03:44:59;;;;;;;1.30;1.20;;;;;17.70;99153.00;;;;2062649;28;20221;-51
2020/12/31 03:45:59;;;;;;;1.10;1.00;;;;;17.80;99158.00;;;;2063088;28;20247;-50
2020/12/31 03:46:59;;;;;;;1.40;1.30;;;;;17.70;99160.00;;;;2062710;28;20228;-50
2020/12/31 03:48:00;;;;;;;1.20;1.10;;;;;17.70;99159.00;;;;2062745;28;20263;-51
2020/12/31 03:49:00;;;;;;;1.20;1.10;;;;;17.70;99149.00;;;;2063219;28;20212;-51
2020/12/31 03:50:01;;;;;;;1.33;1.23;;;;;17.70;99155.00;;;;2063394;28;20235;-50
2020/12/31 03:51:01;;;;;;;1.30;1.20;;;;;17.70;99151.00;;;;2063354;28;20212;-50
2020/12/31 03:52:01;;;;;;;1.40;1.30;;;;;17.70;99154.00;;;;2063081;28;20323;-51
2020/12/31 03:53:01;;;;;;;1.20;1.10;;;;;17.70;99153.00;;;;2062943;28;20226;-52
2020/12/31 03:54:02;;;;;;;1.30;1.20;;;;;17.70;99146.00;;;;2063265;28;20212;-50
2020/12/31 03:55:02;;;;;;;1.47;1.37;;;;;17.70;99151.00;;;;2062470;28;20211;-49
2020/12/31 03:56:02;;;;;;;1.30;1.20;;;;;17.70;99147.00;;;;2062623;28;20315;-50
2020/12/31 03:57:03;;;;;;;1.43;1.33;;;;;17.70;99149.00;;;;2062304;28;20208;-52
2020/12/31 03:58:03;;;;;;;1.13;1.07;;;;;17.70;99136.00;;;;2063044;28;20216;-51
2020/12/31 03:59:04;;;;;;;1.00;1.00;;;;;17.70;99148.00;;;;2062779;28;20580;-50
2020/12/31 04:00:04;;;;;;;1.30;1.20;;;;;17.70;99137.00;;;;2062553;28;20217;-50
2020/12/31 04:01:05;;;;;;;1.30;1.20;;;;;17.70;99134.00;;;;2062565;28;20644;-50
2020/12/31 04:02:05;;;;;;;1.10;1.07;;;;;17.70;99129.00;;;;2062400;28;20224;-49
2020/12/31 04:03:05;;;;;;;1.50;1.30;;;;;17.70;99143.00;;;;2062109;28;20216;-51
2020/12/31 04:04:06;;;;;;;1.40;1.20;;;;;17.70;99142.00;;;;2062027;28;20208;-49
2020/12/31 04:05:06;;;;;;;1.40;1.30;;;;;17.70;99140.00;;;;2061073;28;20242;-52
2020/12/31 04:06:07;;;;;;;1.20;1.10;;;;;17.70;99142.00;;;;2062533;28;20580;-49
2020/12/31 04:07:07;;;;;;;1.20;1.10;;;;;17.70;99141.00;;;;2061331;28;20225;-52
2020/12/31 04:08:07;;;;;;;1.10;1.00;;;;;17.70;99129.00;;;;2061211;28;20255;-49
2020/12/31 04:09:08;;;;;;;1.50;1.40;;;;;17.70;99141.00;;;;2055736;28;20296;-49
2020/12/31 04:10:08;;;;;;;1.20;1.10;;;;;17.70;99135.00;;;;2062678;28;20629;-52
2020/12/31 04:11:08;;;;;;;1.30;1.20;;;;;17.70;99134.00;;;;2062447;28;20212;-50
2020/12/31 04:12:09;;;;;;;1.30;1.20;;;;;17.70;99138.00;;;;2062027;28;20359;-50
2020/12/31 04:13:09;;;;;;;1.17;1.10;;;;;17.70;99131.00;;;;2062226;28;20220;-49
2020/12/31 04:14:09;;;;;;;1.23;1.13;;;;;17.70;99127.00;;;;2062015;28;20215;-49
2020/12/31 04:15:10;;;;;;;1.03;1.00;;;;;17.70;99128.00;;;;2061577;28;20688;-49
2020/12/31 04:16:10;;;;;;;1.30;1.20;;;;;17.70;99125.00;;;;2061984;28;20716;-49
2020/12/31 04:17:11;;;;;;;1.50;1.40;;;;;17.70;99123.00;;;;2062379;28;20215;-52
2020/12/31 04:18:11;;;;;;;1.30;1.20;;;;;17.70;99123.00;;;;2062435;28;20219;-51
2020/12/31 04:19:12;;;;;;;1.17;1.07;;;;;17.70;99116.00;;;;2062585;28;20467;-51
2020/12/31 04:20:12;;;;;;;1.47;1.37;;;;;17.70;99124.00;;;;2062708;28;20219;-50
2020/12/31 04:21:12;;;;;;;1.60;1.50;;;;;17.70;99119.00;;;;2062202;28;20716;-49
2020/12/31 04:22:13;;;;;;;1.20;1.10;;;;;17.70;99120.00;;;;2062869;28;20239;-52
2020/12/31 04:23:13;;;;;;;1.47;1.37;;;;;17.70;99116.00;;;;2062014;28;20635;-54
2020/12/31 04:24:13;;;;;;;1.57;1.30;;;;;17.70;99122.00;;;;2062660;28;20303;-50
2020/12/31 04:25:14;;;;;;;1.47;1.37;;;;;17.70;99116.00;;;;2061910;28;20945;-51
2020/12/31 04:26:14;;;;;;;1.20;1.10;;;;;17.70;99117.00;;;;2062231;28;20235;-50
2020/12/31 04:27:15;;;;;;;1.20;1.10;;;;;17.70;99116.00;;;;2062387;28;20684;-50
2020/12/31 04:28:15;;;;;;;1.77;1.30;;;;;17.70;99119.00;;;;2062394;28;20643;-52
2020/12/31 04:29:15;;;;;;;1.07;0.97;;;;;17.70;99112.00;;;;2062135;28;20216;-50
2020/12/31 04:30:16;;;;;;;1.20;1.10;;;;;17.70;99112.00;;;;2062326;28;20215;-50
2020/12/31 04:31:16;;;;;;;1.30;1.20;;;;;17.70;99110.00;;;;2062041;28;20216;-49
2020/12/31 04:32:16;;;;;;;1.37;1.27;;;;;17.70;99118.00;;;;2060600;28;20245;-50
2020/12/31 04:33:17;;;;;;;1.47;1.30;;;;;17.70;99113.00;;;;2062344;28;20219;-49
2020/12/31 04:34:17;;;;;;;1.50;1.40;;;;;17.70;99117.00;;;;2062277;28;20276;-51
2020/12/31 04:35:18;;;;;;;1.10;1.03;;;;;17.70;99107.00;;;;2061725;28;20212;-50
2020/12/31 04:36:18;;;;;;;1.20;1.10;;;;;17.70;99110.00;;;;2062518;28;20232;-49
2020/12/31 04:37:18;;;;;;;1.00;1.00;;;;;17.70;99107.00;;;;2061999;28;20681;-53
2020/12/31 04:38:18;;;;;;;1.17;1.13;;;;;17.70;99110.00;;;;2061945;28;20648;-50
2020/12/31 04:39:19;;;;;;;1.00;0.90;;;;;17.70;99104.00;;;;2062293;28;20218;-50
2020/12/31 04:40:19;;;;;;;1.27;1.17;;;;;17.70;99111.00;;;;2062361;28;20217;-51
2020/12/31 04:41:20;;;;;;;1.10;1.00;;;;;17.70;99101.00;;;;2062168;28;20694;-51
2020/12/31 04:42:20;;;;;;;1.30;1.20;;;;;17.70;99110.00;;;;2062626;28;20724;-49
2020/12/31 04:43:21;;;;;;;1.13;1.03;;;;;17.70;99104.00;;;;2062135;28;20244;-49
2020/12/31 04:44:21;;;;;;;1.60;1.40;;;;;17.70;99111.00;;;;2062372;28;20830;-49
2020/12/31 04:45:21;;;;;;;1.20;1.10;;;;;17.70;99114.00;;;;2053140;28;20456;-51
2020/12/31 04:46:22;;;;;;;1.07;0.97;;;;;17.70;99108.00;;;;2053400;28;20236;-50
2020/12/31 04:47:23;;;;;;;1.07;0.97;;;;;17.70;99101.00;;;;2061610;28;20751;-52
2020/12/31 04:48:30;;;;;;;1.40;1.30;;;;;17.70;99104.00;;;;2062421;28;20271;-50
2020/12/31 04:49:43;;;;;;;1.20;1.00;;;;;17.70;99107.00;;;;2062484;28;20322;-50
2020/12/31 04:50:44;;;;;;;1.30;1.20;;;;;17.70;99106.00;;;;2062406;28;20331;-51
2020/12/31 04:51:44;;;;;;;0.90;0.90;;;;;17.70;99103.00;;;;2067860;28;20223;-50
2020/12/31 04:52:44;;;;;;;1.07;0.97;;;;;17.70;99107.00;;;;2068551;28;20224;-50
2020/12/31 04:53:45;;;;;;;0.97;0.93;;;;;17.70;99111.00;;;;2063572;28;20305;-50
2020/12/31 04:54:45;;;;;;;1.20;1.10;;;;;17.70;99101.00;;;;2053355;28;20228;-50
2020/12/31 04:55:46;;;;;;;1.20;1.10;;;;;17.70;99104.00;;;;2062185;28;20232;-49
2020/12/31 04:56:46;;;;;;;1.30;1.00;;;;;17.70;99106.00;;;;2071094;28;20230;-51
2020/12/31 04:57:46;;;;;;;1.17;1.07;;;;;17.70;99109.00;;;;2070544;28;20218;-51
2020/12/31 04:58:47;;;;;;;1.23;1.13;;;;;17.70;99096.00;;;;2070968;28;20237;-51
2020/12/31 04:59:47;;;;;;;0.87;0.87;;;;;17.70;99099.00;;;;2070322;28;20223;-50
2020/12/31 05:00:47;;;;;;;1.20;1.10;;;;;17.70;99110.00;;;;2064924;28;20219;-50
2020/12/31 05:01:48;;;;;;;1.40;1.30;;;;;17.70;99106.00;;;;2070688;28;20302;-50
2020/12/31 05:02:52;;;;;;;0.97;0.93;;;;;17.70;99099.00;;;;2071049;28;20253;-51
2020/12/31 05:03:53;;;;;;;1.30;1.20;;;;;17.70;99102.00;;;;2070957;28;20231;-51